Time;durP1;ratioP1;P1;durP2;ratioP2;P2;SDS_P1;SDS_P2;PMS_P1;PMS_P2;Temp;Humidity;BMP_temperature;BMP_pressure;BME280_temperature;BME280_humidity;BME280_pressure;Samples;Min_cycle;Max_cycle;Signal;HPM_P1;HPM_P2
2023/10/07 00:00:47;;;;;;;1.95;1.10;;;;;;;;;;9910129;28;20227;-76
2023/10/07 00:05:50;;;;;;;3.10;1.15;;;;;;;;;;9922920;28;21368;-77
2023/10/07 00:10:51;;;;;;;1.23;1.13;;;;;;;;;;9901594;28;20216;-76
2023/10/07 00:15:53;;;;;;;3.30;1.63;;;;;;;;;;9856838;28;20308;-77
2023/10/07 00:20:55;;;;;;;2.75;1.38;;;;;;;;;;9811298;28;21753;-78
2023/10/07 00:25:58;;;;;;;4.75;1.60;;;;;;;;;;9840750;28;20339;-77
2023/10/07 00:31:03;;;;;;;4.38;1.73;;;;;;;;;;9836441;28;22010;-78
2023/10/07 00:36:09;;;;;;;2.35;1.50;;;;;;;;;;9810373;28;20231;-78
2023/10/07 00:41:12;;;;;;;3.38;1.88;;;;;;;;;;9781851;28;20321;-78
2023/10/07 00:46:27;;;;;;;4.32;1.58;;;;;;;;;;9790255;28;20220;-77
2023/10/07 00:51:35;;;;;;;5.00;1.88;;;;;;;;;;9753786;28;20339;-77
2023/10/07 00:56:37;;;;;;;5.97;2.38;;;;;;;;;;9814923;28;20220;-77
2023/10/07 01:01:38;;;;;;;3.85;2.00;;;;;;;;;;9817630;28;20240;-77
2023/10/07 01:06:44;;;;;;;2.40;1.90;;;;;;;;;;9813840;28;20259;-76
2023/10/07 01:11:46;;;;;;;1.98;1.80;;;;;;;;;;9791379;28;20338;-77
2023/10/07 01:16:47;;;;;;;2.35;1.67;;;;;;;;;;9778875;28;21376;-78
2023/10/07 01:21:51;;;;;;;2.75;1.70;;;;;;;;;;9785547;28;20238;-78
2023/10/07 01:26:53;;;;;;;2.22;1.95;;;;;;;;;;9817878;28;21609;-77
2023/10/07 01:32:00;;;;;;;4.38;1.60;;;;;;;;;;9983031;28;20214;-78
2023/10/07 01:37:11;;;;;;;2.25;1.30;;;;;;;;;;10392386;28;20276;-76
2023/10/07 01:42:20;;;;;;;4.60;1.80;;;;;;;;;;10406660;28;20251;-78
2023/10/07 01:47:26;;;;;;;3.28;1.73;;;;;;;;;;10390079;28;20219;-78
2023/10/07 01:52:29;;;;;;;2.30;1.55;;;;;;;;;;10377249;28;20258;-78
2023/10/07 01:57:30;;;;;;;3.55;1.95;;;;;;;;;;10400404;28;20218;-77
2023/10/07 02:02:31;;;;;;;2.83;1.70;;;;;;;;;;10404831;28;20210;-76
2023/10/07 02:07:36;;;;;;;3.08;1.80;;;;;;;;;;10375399;28;20214;-79
2023/10/07 02:12:37;;;;;;;2.00;1.70;;;;;;;;;;10382604;28;20673;-78
2023/10/07 02:17:38;;;;;;;4.18;2.20;;;;;;;;;;10385169;28;20218;-77
2023/10/07 02:22:40;;;;;;;2.30;1.98;;;;;;;;;;10376547;28;20255;-77
2023/10/07 02:27:41;;;;;;;3.15;1.88;;;;;;;;;;10361861;28;20956;-78
2023/10/07 02:32:42;;;;;;;3.70;1.50;;;;;;;;;;10400523;28;20200;-78
2023/10/07 02:37:49;;;;;;;5.05;1.85;;;;;;;;;;10395102;28;20224;-78
2023/10/07 02:42:54;;;;;;;2.22;2.00;;;;;;;;;;10366045;28;20274;-78
2023/10/07 02:48:00;;;;;;;3.55;2.03;;;;;;;;;;10374727;28;20211;-77
2023/10/07 02:53:10;;;;;;;4.47;1.85;;;;;;;;;;10366861;28;20213;-77
2023/10/07 02:58:13;;;;;;;2.15;1.88;;;;;;;;;;10398539;28;20219;-76
2023/10/07 03:08:21;;;;;;;2.40;1.67;;;;;;;;;;10385684;28;20222;-78
2023/10/07 03:13:25;;;;;;;4.82;1.70;;;;;;;;;;10368485;28;20656;-77
2023/10/07 03:18:30;;;;;;;1.60;1.60;;;;;;;;;;10395974;28;20222;-79
2023/10/07 03:23:34;;;;;;;1.83;1.73;;;;;;;;;;10385652;28;20760;-77
2023/10/07 03:28:36;;;;;;;2.00;1.90;;;;;;;;;;10366741;28;20656;-78
2023/10/07 03:33:54;;;;;;;2.90;1.50;;;;;;;;;;10387981;28;20214;-78
2023/10/07 03:44:18;;;;;;;2.15;1.55;;;;;;;;;;9826362;28;21183;-76
2023/10/07 03:49:21;;;;;;;2.00;1.60;;;;;;;;;;9829587;28;20227;-77
2023/10/07 03:54:29;;;;;;;2.22;1.98;;;;;;;;;;9823648;28;20370;-78
2023/10/07 03:59:32;;;;;;;3.97;1.58;;;;;;;;;;9798692;28;20255;-78
2023/10/07 04:04:33;;;;;;;2.25;2.08;;;;;;;;;;9781059;28;20211;-76
2023/10/07 04:09:35;;;;;;;4.78;1.70;;;;;;;;;;9747262;28;20257;-77
2023/10/07 04:14:39;;;;;;;2.67;1.73;;;;;;;;;;9790128;28;20220;-76
2023/10/07 04:19:42;;;;;;;1.52;1.42;;;;;;;;;;9751533;28;20237;-75
2023/10/07 04:24:44;;;;;;;1.67;1.58;;;;;;;;;;9776362;28;20235;-76
2023/10/07 04:29:46;;;;;;;1.65;1.55;;;;;;;;;;9751463;28;22174;-76
2023/10/07 04:35:06;;;;;;;1.75;1.48;;;;;;;;;;9796199;28;20222;-76
2023/10/07 04:45:36;;;;;;;3.75;1.27;;;;;;;;;;9813696;28;20227;-75
2023/10/07 04:50:38;;;;;;;2.55;1.10;;;;;;;;;;9770796;28;20255;-77
2023/10/07 04:55:41;;;;;;;1.40;1.30;;;;;;;;;;9771467;28;20266;-77
2023/10/07 05:00:47;;;;;;;1.33;1.20;;;;;;;;;;9770211;28;20349;-77
2023/10/07 05:05:48;;;;;;;3.13;1.02;;;;;;;;;;9697472;28;22215;-78
2023/10/07 05:10:53;;;;;;;2.25;1.33;;;;;;;;;;9679817;28;20398;-76
2023/10/07 05:15:55;;;;;;;1.08;1.08;;;;;;;;;;9688275;28;20347;-76
2023/10/07 05:20:57;;;;;;;1.60;1.50;;;;;;;;;;9678731;28;20905;-78
2023/10/07 05:26:03;;;;;;;1.02;1.02;;;;;;;;;;9673824;28;20797;-79
2023/10/07 05:31:04;;;;;;;1.52;1.40;;;;;;;;;;10277636;28;20223;-79
2023/10/07 05:36:11;;;;;;;3.53;1.23;;;;;;;;;;10362784;28;20772;-78
2023/10/07 05:41:14;;;;;;;1.35;1.23;;;;;;;;;;10368123;28;20736;-79
2023/10/07 05:46:19;;;;;;;1.52;1.40;;;;;;;;;;10374675;28;20223;-78
2023/10/07 05:51:20;;;;;;;3.15;1.63;;;;;;;;;;10405627;28;20211;-79
2023/10/07 05:56:22;;;;;;;1.38;1.38;;;;;;;;;;10377151;28;20231;-78
2023/10/07 06:01:23;;;;;;;1.95;1.88;;;;;;;;;;10369289;28;20223;-78
2023/10/07 06:06:24;;;;;;;3.22;2.15;;;;;;;;;;10402656;28;20207;-79
2023/10/07 06:11:28;;;;;;;2.22;2.00;;;;;;;;;;10384439;28;20219;-78
2023/10/07 06:16:29;;;;;;;2.53;1.77;;;;;;;;;;10372545;28;20222;-78
2023/10/07 06:21:33;;;;;;;2.83;2.22;;;;;;;;;;10371506;28;20231;-79
2023/10/07 06:26:36;;;;;;;2.05;1.95;;;;;;;;;;10384327;28;20226;-79
2023/10/07 06:31:40;;;;;;;2.78;2.10;;;;;;;;;;10373002;28;20965;-80
2023/10/07 06:36:41;;;;;;;4.10;2.65;;;;;;;;;;10365236;28;20310;-78
2023/10/07 06:41:43;;;;;;;3.85;2.75;;;;;;;;;;10384024;28;20234;-78
2023/10/07 06:46:46;;;;;;;4.18;2.90;;;;;;;;;;10411607;28;20291;-79
2023/10/07 06:51:53;;;;;;;2.92;2.75;;;;;;;;;;10396552;28;20211;-80
2023/10/07 06:56:55;;;;;;;3.08;2.70;;;;;;;;;;10342622;28;20275;-79
2023/10/07 07:01:56;;;;;;;3.85;3.38;;;;;;;;;;10387423;28;20387;-79
2023/10/07 07:06:58;;;;;;;3.28;3.00;;;;;;;;;;10387442;28;20245;-79
2023/10/07 07:12:03;;;;;;;3.45;3.15;;;;;;;;;;10389717;28;20745;-78
2023/10/07 07:22:25;;;;;;;3.70;3.38;;;;;;;;;;10387557;28;20247;-78
2023/10/07 07:27:33;;;;;;;4.88;3.17;;;;;;;;;;10378341;28;20230;-78
2023/10/07 07:32:35;;;;;;;3.78;3.35;;;;;;;;;;10363354;28;20219;-77
2023/10/07 07:37:36;;;;;;;4.60;3.55;;;;;;;;;;9864117;28;21315;-77
2023/10/07 07:42:37;;;;;;;3.97;3.75;;;;;;;;;;9693588;28;20223;-75
2023/10/07 07:47:38;;;;;;;4.15;3.88;;;;;;;;;;9691221;28;21314;-77
2023/10/07 07:52:39;;;;;;;4.32;4.00;;;;;;;;;;9680926;28;21356;-78
2023/10/07 07:57:44;;;;;;;4.35;4.05;;;;;;;;;;9674534;28;21325;-78
2023/10/07 08:02:48;;;;;;;4.35;4.05;;;;;;;;;;9694098;28;21801;-76
2023/10/07 08:07:51;;;;;;;4.53;4.22;;;;;;;;;;9687010;28;20260;-77
2023/10/07 08:12:52;;;;;;;5.72;4.20;;;;;;;;;;9676308;28;22105;-75
2023/10/07 08:17:56;;;;;;;5.43;4.90;;;;;;;;;;9666676;28;20987;-76
2023/10/07 08:23:06;;;;;;;5.13;4.82;;;;;;;;;;9684549;28;21486;-76
2023/10/07 08:28:23;;;;;;;5.72;5.15;;;;;;;;;;9760608;28;21791;-75
2023/10/07 08:33:32;;;;;;;9.02;5.78;;;;;;;;;;9769947;28;20223;-76
2023/10/07 08:38:44;;;;;;;5.82;5.30;;;;;;;;;;9739643;28;20234;-76
2023/10/07 08:44:02;;;;;;;6.70;5.20;;;;;;;;;;9769794;28;21738;-76
2023/10/07 08:49:13;;;;;;;6.47;4.95;;;;;;;;;;9750617;28;21255;-76
2023/10/07 08:54:26;;;;;;;6.50;4.57;;;;;;;;;;9750664;28;21754;-77
2023/10/07 08:59:31;;;;;;;5.63;5.22;;;;;;;;;;9773068;28;20223;-78
2023/10/07 09:04:32;;;;;;;7.13;5.43;;;;;;;;;;9782899;28;20227;-77
2023/10/07 09:09:43;;;;;;;6.78;4.63;;;;;;;;;;9776381;28;21916;-76
2023/10/07 09:14:57;;;;;;;6.55;4.68;;;;;;;;;;9807252;28;21515;-77
2023/10/07 09:20:00;;;;;;;9.95;4.97;;;;;;;;;;9782000;28;21785;-76
2023/10/07 09:25:16;;;;;;;5.88;4.53;;;;;;;;;;10064478;28;20309;-79
2023/10/07 09:35:37;;;;;;;6.30;3.88;;;;;;;;;;10392339;28;20303;-79
2023/10/07 09:41:11;;;;;;;4.53;4.15;;;;;;;;;;10376889;28;20226;-80
2023/10/07 09:46:14;;;;;;;3.75;3.55;;;;;;;;;;10406061;28;20872;-79
2023/10/07 09:51:22;;;;;;;8.07;4.53;;;;;;;;;;10405390;28;20682;-80
2023/10/07 09:56:32;;;;;;;4.72;3.97;;;;;;;;;;10405397;28;20707;-79
2023/10/07 10:01:37;;;;;;;4.30;3.85;;;;;;;;;;10390526;28;20713;-77
2023/10/07 10:06:47;;;;;;;5.82;4.00;;;;;;;;;;10384842;28;20245;-79
2023/10/07 10:17:21;;;;;;;5.88;4.70;;;;;;;;;;10406680;28;20238;-79
2023/10/07 10:22:24;;;;;;;5.88;4.18;;;;;;;;;;10390342;28;20245;-80
2023/10/07 10:27:26;;;;;;;7.85;4.85;;;;;;;;;;10385512;28;21066;-80
2023/10/07 10:32:34;;;;;;;4.93;4.22;;;;;;;;;;10402825;28;20227;-80
2023/10/07 10:37:37;;;;;;;6.90;3.97;;;;;;;;;;10367084;28;20314;-76
2023/10/07 10:42:41;;;;;;;5.95;3.95;;;;;;;;;;10391734;28;20227;-80
2023/10/07 10:47:45;;;;;;;7.22;4.43;;;;;;;;;;10409223;28;20219;-79
2023/10/07 10:52:48;;;;;;;5.35;4.05;;;;;;;;;;10387749;28;20211;-80
2023/10/07 10:57:50;;;;;;;3.63;3.42;;;;;;;;;;10370980;28;20933;-81
2023/10/07 11:02:54;;;;;;;4.10;3.80;;;;;;;;;;10385150;28;20227;-79
2023/10/07 11:07:56;;;;;;;5.95;3.97;;;;;;;;;;10383967;28;20719;-78
2023/10/07 11:12:57;;;;;;;5.53;3.97;;;;;;;;;;10402075;28;20306;-79
2023/10/07 11:18:12;;;;;;;4.88;4.03;;;;;;;;;;10388623;28;20598;-78
2023/10/07 11:23:16;;;;;;;6.40;3.85;;;;;;;;;;10405144;28;20765;-81
2023/10/07 11:28:22;;;;;;;3.88;3.58;;;;;;;;;;10395684;28;20318;-79
2023/10/07 11:33:24;;;;;;;4.57;3.25;;;;;;;;;;10360580;28;20215;-79
2023/10/07 11:38:25;;;;;;;4.03;3.78;;;;;;;;;;10384551;28;20302;-79
2023/10/07 11:43:29;;;;;;;4.80;3.10;;;;;;;;;;10234726;28;20227;-80
2023/10/07 11:48:30;;;;;;;3.85;3.53;;;;;;;;;;9869162;28;20223;-76
2023/10/07 11:53:31;;;;;;;3.67;3.08;;;;;;;;;;9845046;28;20886;-75
2023/10/07 11:58:33;;;;;;;5.05;3.33;;;;;;;;;;9848111;28;20312;-77
2023/10/07 12:03:34;;;;;;;4.03;2.85;;;;;;;;;;9879540;28;21473;-76
2023/10/07 12:08:36;;;;;;;4.63;3.22;;;;;;;;;;9810580;28;20260;-78
2023/10/07 12:13:40;;;;;;;3.30;3.10;;;;;;;;;;9748207;28;20219;-73
2023/10/07 12:18:41;;;;;;;3.97;3.30;;;;;;;;;;9730033;28;20317;-77
2023/10/07 12:23:43;;;;;;;4.22;3.33;;;;;;;;;;9734378;28;21265;-80
2023/10/07 12:28:44;;;;;;;4.88;3.20;;;;;;;;;;9774421;28;20234;-77
2023/10/07 12:33:45;;;;;;;5.40;4.03;;;;;;;;;;9826591;28;20289;-76
2023/10/07 12:38:46;;;;;;;7.80;3.47;;;;;;;;;;9821197;28;20219;-76
2023/10/07 12:43:48;;;;;;;4.28;3.90;;;;;;;;;;9798088;28;20301;-78
2023/10/07 12:48:49;;;;;;;5.38;4.40;;;;;;;;;;9786619;28;20218;-77
2023/10/07 12:53:55;;;;;;;3.90;3.67;;;;;;;;;;9821530;28;20225;-78
2023/10/07 12:58:56;;;;;;;4.22;3.97;;;;;;;;;;9824259;28;20226;-78
2023/10/07 13:03:58;;;;;;;5.35;4.13;;;;;;;;;;9771936;28;21741;-77
2023/10/07 13:09:03;;;;;;;7.13;3.85;;;;;;;;;;9825277;28;20354;-79
2023/10/07 13:14:04;;;;;;;4.18;3.83;;;;;;;;;;9872370;28;20223;-78
2023/10/07 13:19:05;;;;;;;4.38;4.05;;;;;;;;;;9876963;28;20292;-80
2023/10/07 13:24:07;;;;;;;4.30;3.55;;;;;;;;;;10367866;28;20211;-80
2023/10/07 13:29:10;;;;;;;5.38;3.80;;;;;;;;;;10405731;28;20246;-79
2023/10/07 13:34:11;;;;;;;4.70;3.95;;;;;;;;;;10351267;28;20258;-79
2023/10/07 13:39:15;;;;;;;4.65;4.32;;;;;;;;;;10400126;28;20222;-78
2023/10/07 13:44:17;;;;;;;5.07;4.47;;;;;;;;;;10376266;28;20212;-78
2023/10/07 13:49:18;;;;;;;5.03;4.63;;;;;;;;;;10389549;28;20886;-78
2023/10/07 13:54:22;;;;;;;4.80;4.50;;;;;;;;;;10398266;28;20211;-78
2023/10/07 13:59:24;;;;;;;5.10;4.63;;;;;;;;;;10364082;28;20218;-78
2023/10/07 14:04:25;;;;;;;5.28;4.53;;;;;;;;;;10395229;28;20269;-78
2023/10/07 14:09:28;;;;;;;4.55;4.13;;;;;;;;;;10377637;28;20215;-79
2023/10/07 14:14:29;;;;;;;4.80;4.45;;;;;;;;;;10390548;28;20218;-78
2023/10/07 14:19:30;;;;;;;4.35;3.90;;;;;;;;;;10388251;28;20785;-77
2023/10/07 14:24:32;;;;;;;3.75;3.55;;;;;;;;;;10372215;28;20215;-77
2023/10/07 14:29:33;;;;;;;4.78;3.85;;;;;;;;;;10391681;28;20300;-77
2023/10/07 14:34:35;;;;;;;3.08;2.97;;;;;;;;;;10371862;28;20210;-76
2023/10/07 14:39:36;;;;;;;4.47;2.92;;;;;;;;;;10391642;28;20213;-77
2023/10/07 14:44:38;;;;;;;3.38;3.28;;;;;;;;;;10363233;28;20195;-77
2023/10/07 14:49:39;;;;;;;7.93;2.90;;;;;;;;;;10367945;28;20214;-78
2023/10/07 14:54:40;;;;;;;3.10;2.90;;;;;;;;;;10376237;28;20254;-77
2023/10/07 14:59:42;;;;;;;2.67;2.47;;;;;;;;;;10373222;28;20748;-78
2023/10/07 15:04:44;;;;;;;2.47;2.38;;;;;;;;;;10373104;28;20705;-79
2023/10/07 15:09:48;;;;;;;2.63;2.53;;;;;;;;;;10352643;28;20223;-79
2023/10/07 15:14:49;;;;;;;2.38;2.38;;;;;;;;;;10376865;28;20318;-78
2023/10/07 15:19:51;;;;;;;2.67;2.42;;;;;;;;;;10118091;28;21743;-75
2023/10/07 15:24:52;;;;;;;2.30;2.20;;;;;;;;;;9669404;28;20231;-75
2023/10/07 15:29:54;;;;;;;2.22;1.90;;;;;;;;;;9645551;28;20225;-77
2023/10/07 15:34:58;;;;;;;2.10;2.00;;;;;;;;;;9682420;28;20900;-77
2023/10/07 15:39:59;;;;;;;1.85;1.75;;;;;;;;;;9654203;28;20224;-76
2023/10/07 15:45:03;;;;;;;1.90;1.80;;;;;;;;;;9669804;28;20219;-76
2023/10/07 15:50:04;;;;;;;3.10;1.40;;;;;;;;;;9695441;28;20233;-77
2023/10/07 15:55:06;;;;;;;1.77;1.67;;;;;;;;;;9620410;28;20332;-76
2023/10/07 16:00:11;;;;;;;1.88;1.77;;;;;;;;;;9631947;28;20224;-76
2023/10/07 16:05:13;;;;;;;3.10;1.52;;;;;;;;;;9651072;28;21989;-76
2023/10/07 16:10:14;;;;;;;1.70;1.63;;;;;;;;;;9620572;28;21897;-75
2023/10/07 16:15:15;;;;;;;1.35;1.27;;;;;;;;;;9562828;28;21686;-76
2023/10/07 16:20:18;;;;;;;1.48;1.38;;;;;;;;;;9490879;28;21432;-76
2023/10/07 16:25:21;;;;;;;3.00;1.50;;;;;;;;;;9462694;28;20230;-74
2023/10/07 16:30:22;;;;;;;2.05;1.40;;;;;;;;;;9520301;28;21508;-75
2023/10/07 16:35:24;;;;;;;2.30;1.30;;;;;;;;;;9512919;28;21131;-76
2023/10/07 16:40:25;;;;;;;1.38;1.33;;;;;;;;;;9559333;28;21538;-74
2023/10/07 16:45:26;;;;;;;1.55;1.20;;;;;;;;;;9527009;28;21629;-76
2023/10/07 16:50:27;;;;;;;1.48;1.30;;;;;;;;;;9594472;28;21372;-75
2023/10/07 16:55:29;;;;;;;3.72;1.70;;;;;;;;;;9596806;28;22239;-76
2023/10/07 17:00:30;;;;;;;3.55;1.40;;;;;;;;;;9663064;28;20246;-76
2023/10/07 17:05:33;;;;;;;1.45;1.35;;;;;;;;;;9675622;28;21614;-76
2023/10/07 17:10:39;;;;;;;2.75;1.55;;;;;;;;;;9674425;28;20229;-77
2023/10/07 17:15:41;;;;;;;2.15;1.45;;;;;;;;;;9847808;28;20220;-78
2023/10/07 17:20:42;;;;;;;1.42;1.33;;;;;;;;;;10360586;28;20277;-76
2023/10/07 17:25:45;;;;;;;1.23;1.23;;;;;;;;;;10341819;28;20282;-77
2023/10/07 17:30:46;;;;;;;3.42;1.55;;;;;;;;;;10359741;28;20219;-77
2023/10/07 17:35:47;;;;;;;1.05;0.95;;;;;;;;;;10362215;28;20223;-79
2023/10/07 17:40:48;;;;;;;2.45;1.42;;;;;;;;;;10338477;28;20231;-78
2023/10/07 17:45:49;;;;;;;1.73;1.60;;;;;;;;;;10360702;28;20207;-78
2023/10/07 17:50:52;;;;;;;1.20;1.10;;;;;;;;;;10366434;28;20230;-77
2023/10/07 17:55:53;;;;;;;1.98;1.55;;;;;;;;;;10383751;28;20214;-78
2023/10/07 18:00:54;;;;;;;1.70;1.60;;;;;;;;;;10340902;28;20223;-78
2023/10/07 18:06:07;;;;;;;5.05;1.38;;;;;;;;;;10385471;28;20288;-78
2023/10/07 18:11:08;;;;;;;3.83;1.25;;;;;;;;;;10386291;28;20223;-78
2023/10/07 18:16:09;;;;;;;2.45;1.30;;;;;;;;;;10352659;28;20286;-77
2023/10/07 18:21:10;;;;;;;2.25;1.48;;;;;;;;;;10368739;28;20238;-77
2023/10/07 18:26:11;;;;;;;3.28;1.38;;;;;;;;;;10382736;28;20251;-78
2023/10/07 18:31:15;;;;;;;2.08;1.85;;;;;;;;;;10354581;28;20239;-78
2023/10/07 18:36:17;;;;;;;1.33;1.23;;;;;;;;;;10386058;28;20230;-80
2023/10/07 18:41:18;;;;;;;3.47;1.27;;;;;;;;;;10372138;28;20252;-80
2023/10/07 18:46:19;;;;;;;2.63;1.55;;;;;;;;;;10349902;28;20246;-80
2023/10/07 18:51:20;;;;;;;2.83;1.60;;;;;;;;;;10365830;28;20211;-77
2023/10/07 18:56:21;;;;;;;1.95;1.45;;;;;;;;;;10341342;28;20215;-81
2023/10/07 19:01:23;;;;;;;2.35;1.80;;;;;;;;;;10354579;28;20223;-77
2023/10/07 19:06:24;;;;;;;1.50;1.38;;;;;;;;;;10359873;28;20226;-78
2023/10/07 19:11:25;;;;;;;6.28;2.05;;;;;;;;;;10355810;28;20461;-76
2023/10/07 19:16:26;;;;;;;2.55;1.42;;;;;;;;;;10342691;28;20226;-77
2023/10/07 19:21:27;;;;;;;5.88;1.63;;;;;;;;;;10209043;28;20391;-76
2023/10/07 19:26:29;;;;;;;1.95;1.70;;;;;;;;;;9682270;28;22241;-75
2023/10/07 19:31:30;;;;;;;3.42;2.10;;;;;;;;;;9684271;28;20211;-75
2023/10/07 19:36:31;;;;;;;3.58;1.98;;;;;;;;;;9714715;28;22092;-76
2023/10/07 19:41:32;;;;;;;5.57;2.15;;;;;;;;;;9724706;28;21995;-75
2023/10/07 19:46:34;;;;;;;2.53;1.73;;;;;;;;;;9657589;28;21669;-74
2023/10/07 19:51:36;;;;;;;7.50;1.70;;;;;;;;;;9725140;28;20215;-75
2023/10/07 19:56:37;;;;;;;8.20;2.05;;;;;;;;;;9691527;28;21975;-76
2023/10/07 20:01:38;;;;;;;4.35;2.22;;;;;;;;;;9686647;28;22669;-77
2023/10/07 20:06:41;;;;;;;4.80;2.33;;;;;;;;;;9736714;28;20227;-77
2023/10/07 20:11:42;;;;;;;5.95;2.35;;;;;;;;;;9720939;28;20211;-75
2023/10/07 20:16:43;;;;;;;4.85;2.00;;;;;;;;;;9744423;28;22194;-76
2023/10/07 20:21:45;;;;;;;3.83;1.75;;;;;;;;;;9705809;28;20226;-77
2023/10/07 20:26:46;;;;;;;7.35;2.28;;;;;;;;;;9734614;28;21989;-76
2023/10/07 20:31:49;;;;;;;3.97;1.95;;;;;;;;;;9706620;28;20227;-77
2023/10/07 20:36:50;;;;;;;4.63;2.20;;;;;;;;;;9699907;28;21725;-77
2023/10/07 20:41:51;;;;;;;10.10;2.65;;;;;;;;;;9713686;28;21547;-76
2023/10/07 20:46:53;;;;;;;9.80;2.42;;;;;;;;;;9721928;28;20219;-76
2023/10/07 20:51:54;;;;;;;4.07;2.03;;;;;;;;;;9700374;28;20254;-76
2023/10/07 20:56:55;;;;;;;4.32;2.60;;;;;;;;;;9746659;28;21706;-77
2023/10/07 21:01:59;;;;;;;2.58;2.30;;;;;;;;;;9712567;28;21481;-75
2023/10/07 21:07:00;;;;;;;6.03;2.72;;;;;;;;;;9709209;28;22475;-75
2023/10/07 21:12:01;;;;;;;8.27;3.60;;;;;;;;;;9903011;28;20211;-79
2023/10/07 21:17:02;;;;;;;5.32;3.28;;;;;;;;;;10357416;28;20215;-79
2023/10/07 21:22:03;;;;;;;3.33;3.00;;;;;;;;;;10383222;28;20222;-79
2023/10/07 21:27:04;;;;;;;5.70;3.40;;;;;;;;;;10378505;28;20225;-79
2023/10/07 21:32:05;;;;;;;7.47;3.95;;;;;;;;;;10377273;28;20302;-80
2023/10/07 21:37:06;;;;;;;7.93;3.83;;;;;;;;;;10394142;28;20760;-80
2023/10/07 21:42:07;;;;;;;8.27;4.38;;;;;;;;;;10382604;28;20226;-79
2023/10/07 21:47:08;;;;;;;6.50;4.43;;;;;;;;;;10374273;28;20231;-80
2023/10/07 21:52:09;;;;;;;11.73;5.18;;;;;;;;;;10380904;28;20218;-79
2023/10/07 21:57:11;;;;;;;9.43;5.13;;;;;;;;;;10359918;28;20800;-79
2023/10/07 22:02:12;;;;;;;0.73;0.57;;;;;;;;;;10392266;28;20219;-79
2023/10/07 22:07:13;;;;;;;0.22;0.22;;;;;;;;;;10375201;28;20795;-79
2023/10/07 22:12:16;;;;;;;0.25;0.25;;;;;;;;;;10360190;28;20305;-80
2023/10/07 22:17:18;;;;;;;0.10;0.10;;;;;;;;;;10389156;28;20234;-80
2023/10/07 22:22:20;;;;;;;0.00;0.00;;;;;;;;;;10360451;28;20227;-80
2023/10/07 22:27:21;;;;;;;0.00;0.00;;;;;;;;;;10392132;28;20238;-79
2023/10/07 22:32:23;;;;;;;0.10;0.10;;;;;;;;;;10371072;28;21165;-79
2023/10/07 22:37:25;;;;;;;0.10;0.10;;;;;;;;;;10371006;28;20219;-79
2023/10/07 22:42:34;;;;;;;0.10;0.10;;;;;;;;;;10379255;28;20277;-79
2023/10/07 22:47:35;;;;;;;0.10;0.10;;;;;;;;;;10386974;28;20218;-78
2023/10/07 22:52:36;;;;;;;0.00;0.00;;;;;;;;;;10356893;28;20207;-78
2023/10/07 22:57:40;;;;;;;0.35;0.00;;;;;;;;;;10364667;28;20590;-79
2023/10/07 23:02:41;;;;;;;0.00;0.00;;;;;;;;;;10372225;28;20645;-79
2023/10/07 23:07:49;;;;;;;0.00;0.00;;;;;;;;;;10393923;28;20215;-79
2023/10/07 23:13:01;;;;;;;0.00;0.00;;;;;;;;;;10372868;28;20811;-77
2023/10/07 23:18:02;;;;;;;0.00;0.00;;;;;;;;;;9832943;28;21308;-76
2023/10/07 23:23:13;;;;;;;0.00;0.00;;;;;;;;;;9725769;28;20223;-77
2023/10/07 23:28:26;;;;;;;0.00;0.00;;;;;;;;;;9773285;28;20235;-76
2023/10/07 23:33:36;;;;;;;0.00;0.00;;;;;;;;;;9748084;28;20215;-76
2023/10/07 23:38:41;;;;;;;0.00;0.00;;;;;;;;;;9729811;28;20231;-76
2023/10/07 23:43:43;;;;;;;0.00;0.00;;;;;;;;;;9734820;28;20890;-76
2023/10/07 23:48:47;;;;;;;0.00;0.00;;;;;;;;;;9776702;28;20253;-77
2023/10/07 23:53:49;;;;;;;0.00;0.00;;;;;;;;;;9746678;28;20577;-77
2023/10/07 23:58:53;;;;;;;0.00;0.00;;;;;;;;;;9755071;28;20223;-77
